createdAt,value
2022-09-14T00:01:25.323Z,8.97
2022-09-14T00:04:00.953Z,10.43
2022-09-14T00:06:28.833Z,10.40
2022-09-14T00:08:56.002Z,9.40
2022-09-14T00:11:23.755Z,10.00
2022-09-14T00:13:50.687Z,12.33
2022-09-14T00:16:19.996Z,9.60
2022-09-14T00:18:54.186Z,9.07
2022-09-14T00:21:21.519Z,9.80
2022-09-14T00:23:50.639Z,9.83
2022-09-14T00:26:18.618Z,12.10
2022-09-14T00:28:47.731Z,10.50
2022-09-14T00:31:15.215Z,9.03
2022-09-14T00:33:42.641Z,11.37
2022-09-14T00:36:14.049Z,11.10
2022-09-14T00:38:41.933Z,9.60
2022-09-14T00:41:11.849Z,9.07
2022-09-14T00:43:54.697Z,9.40
2022-09-14T00:46:22.124Z,8.83
2022-09-14T00:48:49.484Z,10.53
2022-09-14T00:51:18.688Z,9.70
2022-09-14T00:53:45.607Z,10.70
2022-09-14T00:56:12.717Z,8.73
2022-09-14T00:58:39.441Z,10.67
2022-09-14T01:01:07.936Z,10.00
2022-09-14T01:03:35.083Z,8.93
2022-09-14T01:06:10.664Z,9.90
2022-09-14T01:08:43.231Z,11.20
2022-09-14T01:11:22.325Z,9.17
2022-09-14T01:13:57.536Z,8.20
2022-09-14T01:16:29.353Z,8.33
2022-09-14T01:19:01.987Z,9.70
2022-09-14T01:21:33.471Z,9.57
2022-09-14T01:24:00.400Z,7.50
2022-09-14T01:26:41.482Z,8.60
2022-09-14T01:29:11.346Z,8.03
2022-09-14T01:31:41.150Z,9.03
2022-09-14T01:34:07.908Z,7.20
2022-09-14T01:36:36.622Z,7.63
2022-09-14T01:39:03.803Z,8.50
2022-09-14T01:41:31.820Z,8.50
2022-09-14T01:44:09.574Z,6.30
2022-09-14T01:46:47.975Z,10.00
2022-09-14T01:49:17.868Z,8.37
2022-09-14T01:51:48.850Z,10.83
2022-09-14T01:54:30.660Z,8.63
2022-09-14T01:57:09.734Z,7.83
2022-09-14T01:59:39.145Z,7.80
2022-09-14T02:02:09.022Z,9.17
2022-09-14T02:04:48.153Z,9.70
2022-09-14T02:07:15.770Z,6.93
2022-09-14T02:09:42.954Z,7.03
2022-09-14T02:12:09.878Z,8.37
2022-09-14T02:14:36.840Z,7.17
2022-09-14T02:17:03.631Z,8.80
2022-09-14T02:19:33.524Z,7.83
2022-09-14T02:22:00.425Z,7.20
2022-09-14T02:24:28.248Z,7.73
2022-09-14T02:26:55.208Z,6.47
2022-09-14T02:29:22.242Z,7.33
2022-09-14T02:32:07.910Z,5.87
2022-09-14T02:34:59.210Z,10.00
2022-09-14T02:37:40.982Z,6.13
2022-09-14T02:40:17.241Z,9.03
2022-09-14T02:42:52.864Z,8.40
2022-09-14T02:45:29.053Z,5.97
2022-09-14T02:47:55.877Z,6.73
2022-09-14T02:50:32.676Z,8.10
2022-09-14T02:53:18.899Z,11.07
2022-09-14T02:55:48.277Z,7.20
2022-09-14T02:58:15.687Z,6.80
2022-09-14T03:00:46.934Z,6.13
2022-09-14T03:03:15.106Z,6.00
2022-09-14T03:05:42.561Z,6.03
2022-09-14T03:08:10.573Z,7.10
2022-09-14T03:10:38.217Z,8.53
2022-09-14T03:13:04.931Z,8.50
2022-09-14T03:15:31.742Z,8.30
2022-09-14T03:17:58.734Z,5.83
2022-09-14T03:20:29.466Z,7.97
2022-09-14T03:22:57.967Z,6.53
2022-09-14T03:25:25.109Z,7.93
2022-09-14T03:27:53.493Z,7.53
2022-09-14T03:30:20.318Z,5.87
2022-09-14T03:32:47.602Z,5.90
2022-09-14T03:35:14.689Z,8.90
2022-09-14T03:37:42.117Z,5.37
2022-09-14T03:40:10.062Z,6.03
2022-09-14T03:42:36.963Z,7.10
2022-09-14T03:45:03.829Z,5.70
2022-09-14T03:47:31.303Z,6.23
2022-09-14T03:49:58.105Z,7.77
2022-09-14T03:52:24.876Z,6.03
2022-09-14T03:54:51.829Z,6.37
2022-09-14T03:57:18.774Z,5.00
2022-09-14T03:59:45.484Z,6.53
2022-09-14T04:02:12.502Z,7.27
2022-09-14T04:04:39.562Z,6.00
2022-09-14T04:07:06.307Z,5.97
2022-09-14T04:09:34.039Z,6.20
2022-09-14T04:12:00.978Z,8.10
2022-09-14T04:14:27.779Z,4.57
2022-09-14T04:16:54.690Z,7.17
2022-09-14T04:19:21.382Z,5.00
2022-09-14T04:21:48.078Z,6.67
2022-09-14T04:24:16.407Z,4.40
2022-09-14T04:26:44.968Z,5.20
2022-09-14T04:29:12.803Z,4.27
2022-09-14T04:31:40.042Z,5.37
2022-09-14T04:34:07.208Z,8.70
2022-09-14T04:36:34.587Z,6.83
2022-09-14T04:39:02.583Z,4.57
2022-09-14T04:41:30.620Z,5.13
2022-09-14T04:43:58.483Z,6.87
2022-09-14T04:46:27.084Z,5.90
2022-09-14T04:48:54.187Z,7.53
2022-09-14T04:51:22.337Z,5.90
2022-09-14T04:53:51.103Z,6.00
2022-09-14T04:56:18.881Z,4.97
2022-09-14T04:58:51.225Z,5.87
2022-09-14T05:01:23.396Z,6.80
2022-09-14T05:03:51.494Z,5.90
2022-09-14T05:06:19.710Z,4.77
2022-09-14T05:08:47.195Z,6.27
2022-09-14T05:11:18.826Z,6.60
2022-09-14T05:13:49.748Z,6.43
2022-09-14T05:16:17.506Z,5.27
2022-09-14T05:18:44.979Z,6.90
2022-09-14T05:21:12.804Z,3.70
2022-09-14T05:23:39.759Z,6.23
2022-09-14T05:26:06.672Z,4.70
2022-09-14T05:28:33.894Z,4.67
2022-09-14T05:31:04.233Z,5.40
2022-09-14T05:33:31.103Z,4.07
2022-09-14T05:36:05.015Z,5.73
2022-09-14T05:38:33.444Z,8.47
2022-09-14T05:41:00.259Z,4.43
2022-09-14T05:43:27.785Z,6.17
2022-09-14T05:45:55.374Z,5.20
2022-09-14T05:48:22.504Z,9.10
2022-09-14T05:50:49.229Z,4.97
2022-09-14T05:53:16.344Z,4.07
2022-09-14T05:55:43.194Z,5.73
2022-09-14T05:58:11.137Z,5.17
2022-09-14T06:00:39.475Z,7.00
2022-09-14T06:03:07.466Z,5.73
2022-09-14T06:05:35.679Z,6.70
2022-09-14T06:08:02.806Z,5.07
2022-09-14T06:10:29.742Z,6.13
2022-09-14T06:12:56.615Z,6.13
2022-09-14T06:15:24.720Z,5.47
2022-09-14T06:17:51.531Z,5.63
2022-09-14T06:20:18.922Z,5.30
2022-09-14T06:22:45.887Z,6.87
2022-09-14T06:25:12.766Z,7.93
2022-09-14T06:27:39.558Z,5.40
2022-09-14T06:30:06.856Z,4.27
2022-09-14T06:32:34.590Z,3.13
2022-09-14T06:35:01.486Z,6.27
2022-09-14T06:37:28.648Z,7.07
2022-09-14T06:39:56.148Z,5.80
2022-09-14T06:42:23.169Z,3.83
2022-09-14T06:44:52.407Z,5.97
2022-09-14T06:47:19.292Z,4.97
2022-09-14T06:49:45.984Z,4.97
2022-09-14T06:52:12.974Z,4.17
2022-09-14T06:54:39.804Z,9.37
2022-09-14T06:57:06.651Z,4.70
2022-09-14T06:59:33.883Z,3.60
2022-09-14T07:02:00.615Z,4.13
2022-09-14T07:04:27.599Z,4.00
2022-09-14T07:06:54.552Z,5.63
2022-09-14T07:09:21.462Z,5.93
2022-09-14T07:11:49.230Z,6.47
2022-09-14T07:14:16.660Z,4.20
2022-09-14T07:16:43.503Z,3.80
2022-09-14T07:19:11.482Z,8.70
2022-09-14T07:21:39.097Z,5.50
2022-09-14T07:24:05.921Z,4.10
2022-09-14T07:26:35.285Z,7.20
2022-09-14T07:29:04.331Z,4.23
2022-09-14T07:31:32.566Z,4.03
2022-09-14T07:34:03.312Z,6.43
2022-09-14T07:36:34.985Z,4.27
2022-09-14T07:39:03.172Z,8.23
2022-09-14T07:41:30.482Z,6.70
2022-09-14T07:44:00.520Z,4.53
2022-09-14T07:46:28.628Z,3.77
2022-09-14T07:48:56.731Z,6.83
2022-09-14T07:51:24.263Z,4.07
2022-09-14T07:53:51.744Z,3.83
2022-09-14T07:56:18.761Z,4.83
2022-09-14T07:58:45.741Z,5.87
2022-09-14T08:01:14.167Z,3.30
2022-09-14T08:03:42.091Z,7.63
2022-09-14T08:06:13.497Z,4.10
2022-09-14T08:08:41.966Z,5.83
2022-09-14T08:11:13.210Z,3.90
2022-09-14T08:13:41.077Z,6.60
2022-09-14T08:16:08.175Z,3.73
2022-09-14T08:18:35.767Z,2.70
2022-09-14T08:21:05.881Z,4.57
2022-09-14T08:23:33.215Z,5.67
2022-09-14T08:26:04.506Z,6.13
2022-09-14T08:28:31.735Z,5.50
2022-09-14T08:31:02.525Z,9.13
2022-09-14T08:33:29.193Z,5.33
2022-09-14T08:35:58.291Z,5.97
2022-09-14T08:38:25.408Z,5.03
2022-09-14T08:40:52.404Z,5.70
2022-09-14T08:43:21.265Z,5.13
2022-09-14T08:45:48.529Z,5.23
2022-09-14T08:48:19.131Z,5.13
2022-09-14T08:50:46.162Z,8.20
2022-09-14T08:53:13.046Z,3.57
2022-09-14T08:55:45.804Z,6.93
2022-09-14T08:58:31.011Z,3.63
2022-09-14T09:01:00.884Z,4.00
2022-09-14T09:03:27.869Z,3.90
2022-09-14T09:05:58.949Z,5.50
2022-09-14T09:08:28.630Z,4.70
2022-09-14T09:10:58.673Z,4.30
2022-09-14T09:13:26.701Z,5.53
2022-09-14T09:15:55.141Z,3.17
2022-09-14T09:18:26.612Z,6.33
2022-09-14T09:21:13.677Z,6.50
2022-09-14T09:23:41.015Z,6.20
2022-09-14T09:26:22.496Z,5.83
2022-09-14T09:28:52.218Z,4.33
2022-09-14T09:31:21.273Z,4.67
2022-09-14T09:34:16.633Z,4.63
2022-09-14T09:36:46.804Z,2.50
2022-09-14T09:39:15.676Z,9.87
2022-09-14T09:41:48.272Z,4.83
2022-09-14T09:44:17.010Z,2.85
2022-09-14T09:46:47.280Z,2.78
2022-09-14T09:49:23.265Z,4.03
2022-09-14T09:51:50.778Z,2.53
2022-09-14T09:54:17.762Z,2.50
2022-09-14T09:56:55.539Z,3.38
2022-09-14T09:59:22.676Z,3.05
2022-09-14T10:01:49.797Z,5.18
2022-09-14T10:04:18.302Z,6.63
2022-09-14T10:06:50.501Z,3.20
2022-09-14T10:09:19.065Z,7.00
2022-09-14T10:11:47.390Z,3.95
2022-09-14T10:14:22.466Z,7.63
2022-09-14T10:16:49.907Z,5.88
2022-09-14T10:19:22.125Z,4.40
2022-09-14T10:22:17.365Z,4.00
2022-09-14T10:24:54.231Z,6.72
2022-09-14T10:27:52.951Z,5.22
2022-09-14T10:30:22.079Z,4.53
2022-09-14T10:33:09.378Z,3.78
2022-09-14T10:35:55.319Z,6.18
2022-09-14T10:38:28.359Z,6.05
2022-09-14T10:41:01.504Z,5.15
2022-09-14T10:43:43.903Z,3.22
2022-09-14T10:46:12.851Z,4.15
2022-09-14T10:48:40.384Z,5.32
2022-09-14T10:51:20.292Z,8.50
2022-09-14T10:54:10.365Z,4.53
2022-09-14T10:56:38.468Z,5.88
2022-09-14T10:59:08.677Z,5.60
2022-09-14T11:01:48.149Z,4.68
2022-09-14T11:04:24.342Z,11.05
2022-09-14T11:07:00.111Z,4.63
2022-09-14T11:09:50.460Z,4.15
2022-09-14T11:12:30.936Z,6.15
2022-09-14T11:15:00.877Z,3.28
2022-09-14T11:17:52.884Z,5.13
2022-09-14T11:20:29.472Z,5.38
2022-09-14T11:23:18.575Z,2.00
2022-09-14T11:25:48.000Z,4.82
2022-09-14T11:28:26.676Z,3.60
2022-09-14T11:31:02.378Z,3.53
2022-09-14T11:33:32.310Z,3.72
2022-09-14T11:36:02.115Z,4.45
2022-09-14T11:38:36.095Z,4.45
2022-09-14T11:41:26.311Z,2.40
2022-09-14T11:43:53.044Z,5.95
2022-09-14T11:46:24.136Z,4.97
2022-09-14T11:49:01.996Z,7.28
2022-09-14T11:51:38.341Z,3.50
2022-09-14T11:54:10.895Z,6.40
2022-09-14T11:56:38.040Z,3.88
2022-09-14T11:59:06.959Z,4.40
2022-09-14T12:01:37.971Z,3.47
2022-09-14T12:04:05.142Z,4.70
2022-09-14T12:06:32.016Z,2.63
2022-09-14T12:09:14.040Z,4.13
2022-09-14T12:11:42.159Z,6.05
2022-09-14T12:14:21.264Z,4.25
2022-09-14T12:17:13.039Z,3.67
2022-09-14T12:19:52.314Z,3.15
2022-09-14T12:22:38.137Z,4.57
2022-09-14T12:25:16.268Z,4.22
2022-09-14T12:27:44.481Z,3.67
2022-09-14T12:30:30.211Z,3.10
2022-09-14T12:32:57.360Z,4.03
2022-09-14T12:35:39.414Z,5.70
2022-09-14T12:38:25.192Z,4.88
2022-09-14T12:40:52.041Z,2.92
2022-09-14T12:43:34.650Z,4.75
2022-09-14T12:46:08.160Z,5.47
2022-09-14T12:48:55.622Z,5.10
2022-09-14T12:51:29.208Z,5.45
2022-09-14T12:54:02.780Z,6.90
2022-09-14T12:56:42.297Z,2.58
2022-09-14T12:59:32.261Z,2.85
2022-09-14T13:02:08.395Z,3.95
2022-09-14T13:04:39.294Z,5.15
2022-09-14T13:07:12.551Z,2.25
2022-09-14T13:09:45.341Z,3.15
2022-09-14T13:12:14.225Z,6.00
2022-09-14T13:14:52.827Z,3.00
2022-09-14T13:17:19.649Z,4.20
2022-09-14T13:19:57.909Z,2.80
2022-09-14T13:22:26.621Z,3.60
2022-09-14T13:24:53.736Z,5.35
2022-09-14T13:27:29.852Z,4.03
2022-09-14T13:30:03.304Z,4.68
2022-09-14T13:32:30.977Z,3.53
2022-09-14T13:34:58.086Z,5.07
2022-09-14T13:37:25.124Z,3.03
2022-09-14T13:39:53.602Z,5.55
2022-09-14T13:42:21.651Z,3.20
2022-09-14T13:44:49.996Z,2.97
2022-09-14T13:47:19.639Z,4.63
2022-09-14T13:49:47.791Z,3.83
2022-09-14T13:52:31.064Z,6.28
2022-09-14T13:55:24.839Z,2.47
2022-09-14T13:58:11.843Z,4.93
2022-09-14T14:00:51.303Z,4.60
2022-09-14T14:03:37.077Z,8.73
2022-09-14T14:06:21.762Z,5.30
2022-09-14T14:09:12.072Z,3.88
2022-09-14T14:11:44.008Z,6.70
2022-09-14T14:14:13.997Z,3.72
2022-09-14T14:16:41.505Z,2.03
2022-09-14T14:19:28.590Z,6.15
2022-09-14T14:22:14.008Z,5.18
2022-09-14T14:25:09.494Z,5.53
2022-09-14T14:27:32.230Z,2.92
2022-09-14T14:30:00.171Z,3.92
2022-09-14T14:32:28.003Z,6.72
2022-09-14T14:34:55.491Z,4.68
2022-09-14T14:37:22.313Z,3.75
2022-09-14T14:39:49.865Z,3.65
2022-09-14T14:42:17.543Z,2.58
2022-09-14T14:44:45.063Z,2.90
2022-09-14T14:47:15.619Z,6.15
2022-09-14T14:49:42.611Z,4.57
2022-09-14T14:52:10.285Z,3.80
2022-09-14T14:54:37.324Z,4.60
2022-09-14T14:57:05.221Z,7.28
2022-09-14T14:59:32.547Z,4.20
2022-09-14T15:01:59.483Z,5.90
2022-09-14T15:04:26.750Z,3.08
2022-09-14T15:06:53.919Z,2.40
2022-09-14T15:09:22.700Z,3.53
2022-09-14T15:11:50.499Z,6.80
2022-09-14T15:14:19.352Z,4.85
2022-09-14T15:16:46.521Z,3.88
2022-09-14T15:19:13.904Z,6.50
2022-09-14T15:21:41.780Z,8.25
2022-09-14T15:24:09.301Z,5.95
2022-09-14T15:26:36.653Z,4.63
2022-09-14T15:29:04.199Z,5.55
2022-09-14T15:31:31.461Z,4.70
2022-09-14T15:33:59.631Z,6.22
2022-09-14T15:36:40.871Z,4.93
2022-09-14T15:39:09.777Z,3.63
2022-09-14T15:41:36.831Z,7.38
2022-09-14T15:44:04.021Z,7.25
2022-09-14T15:46:31.520Z,2.80
2022-09-14T15:48:58.985Z,6.97
2022-09-14T15:51:26.024Z,8.13
2022-09-14T15:53:53.300Z,4.30
2022-09-14T15:56:20.254Z,5.20
2022-09-14T15:58:48.237Z,7.40
2022-09-14T16:01:16.763Z,2.78
2022-09-14T16:03:44.108Z,9.45
2022-09-14T16:06:11.966Z,5.95
2022-09-14T16:08:39.710Z,4.00
2022-09-14T16:11:07.510Z,5.80
2022-09-14T16:13:35.127Z,5.82
2022-09-14T16:16:09.423Z,5.28
2022-09-14T16:18:37.557Z,7.17
2022-09-14T16:21:09.287Z,9.00
2022-09-14T16:23:37.821Z,8.10
2022-09-14T16:26:05.447Z,6.22
2022-09-14T16:28:32.611Z,6.93
2022-09-14T16:31:13.209Z,8.05
2022-09-14T16:33:41.652Z,8.80
2022-09-14T16:36:09.739Z,4.45
2022-09-14T16:38:37.329Z,6.03
2022-09-14T16:41:04.949Z,3.63
2022-09-14T16:43:32.240Z,7.33
2022-09-14T16:46:16.403Z,7.18
2022-09-14T16:48:44.675Z,7.23
2022-09-14T16:51:12.286Z,5.30
2022-09-14T16:53:40.205Z,7.80
2022-09-14T16:56:08.449Z,6.73
2022-09-14T16:58:35.706Z,4.33
2022-09-14T17:01:07.356Z,6.13
2022-09-14T17:03:35.311Z,7.97
2022-09-14T17:06:03.010Z,5.03
2022-09-14T17:08:30.974Z,6.50
2022-09-14T17:10:58.409Z,6.47
2022-09-14T17:13:26.109Z,4.47
2022-09-14T17:15:53.913Z,5.30
2022-09-14T17:18:21.003Z,8.70
2022-09-14T17:20:55.010Z,10.10
2022-09-14T17:23:22.361Z,5.13
2022-09-14T17:25:49.693Z,7.40
2022-09-14T17:28:16.977Z,8.77
2022-09-14T17:30:44.318Z,7.00
2022-09-14T17:33:11.546Z,8.07
2022-09-14T17:35:38.423Z,9.03
2022-09-14T17:38:05.517Z,7.90
2022-09-14T17:40:33.704Z,4.40
2022-09-14T17:43:00.594Z,4.73
2022-09-14T17:45:27.732Z,6.70
2022-09-14T17:47:54.777Z,7.10
2022-09-14T17:50:23.567Z,10.93
2022-09-14T17:52:50.918Z,12.27
2022-09-14T17:55:18.032Z,15.47
2022-09-14T17:57:45.243Z,6.63
2022-09-14T18:00:12.695Z,14.57
2022-09-14T18:02:39.701Z,16.13
2022-09-14T18:05:06.720Z,17.43
2022-09-14T18:07:33.916Z,12.23
2022-09-14T18:10:01.299Z,15.27
2022-09-14T18:12:31.189Z,15.93
2022-09-14T18:14:58.396Z,12.90
2022-09-14T18:17:26.032Z,12.67
2022-09-14T18:19:57.831Z,15.23
2022-09-14T18:22:25.591Z,24.60
2022-09-14T18:24:52.614Z,28.37
2022-09-14T18:27:19.833Z,22.87
2022-09-14T18:29:47.104Z,19.63
2022-09-14T18:32:14.351Z,23.67
2022-09-14T18:34:41.465Z,14.27
2022-09-14T18:37:08.761Z,11.57
2022-09-14T18:39:35.901Z,11.33
2022-09-14T18:42:02.962Z,19.90
2022-09-14T18:44:30.248Z,19.87
2022-09-14T18:46:58.950Z,24.97
2022-09-14T18:49:26.083Z,23.03
2022-09-14T18:51:53.301Z,13.07
2022-09-14T18:54:26.752Z,15.27
2022-09-14T18:56:54.939Z,12.33
2022-09-14T18:59:23.272Z,16.60
2022-09-14T19:01:51.329Z,14.80
2022-09-14T19:04:18.824Z,15.27
2022-09-14T19:06:46.017Z,16.47
2022-09-14T19:09:13.247Z,16.97
2022-09-14T19:11:41.212Z,16.33
2022-09-14T19:14:10.603Z,20.97
2022-09-14T19:16:39.392Z,20.73
2022-09-14T19:19:07.417Z,14.40
2022-09-14T19:21:34.607Z,18.80
2022-09-14T19:24:06.415Z,16.67
2022-09-14T19:26:39.069Z,15.43
2022-09-14T19:29:10.141Z,16.53
2022-09-14T19:31:37.883Z,20.20
2022-09-14T19:34:05.399Z,15.10
2022-09-14T19:36:36.607Z,13.00
2022-09-14T19:39:04.232Z,14.37
2022-09-14T19:41:34.002Z,14.70
2022-09-14T19:44:02.113Z,16.23
2022-09-14T19:46:31.338Z,12.27
2022-09-14T19:48:58.594Z,13.07
2022-09-14T19:51:27.165Z,13.60
2022-09-14T19:53:55.786Z,9.53
2022-09-14T19:56:25.542Z,13.93
2022-09-14T19:58:53.806Z,10.43
2022-09-14T20:01:23.968Z,14.30
2022-09-14T20:03:51.201Z,11.23
2022-09-14T20:06:31.410Z,10.23
2022-09-14T20:08:58.795Z,12.57
2022-09-14T20:11:27.010Z,11.17
2022-09-14T20:13:55.127Z,12.20
2022-09-14T20:16:28.452Z,14.50
2022-09-14T20:18:56.717Z,11.83
2022-09-14T20:21:24.908Z,15.30
2022-09-14T20:24:17.489Z,11.63
2022-09-14T20:26:46.494Z,10.10
2022-09-14T20:29:15.301Z,11.13
2022-09-14T20:31:42.477Z,11.43
2022-09-14T20:34:09.897Z,12.67
2022-09-14T20:36:36.875Z,10.13
2022-09-14T20:39:04.096Z,7.70
2022-09-14T20:41:32.149Z,8.90
2022-09-14T20:43:59.696Z,12.97
2022-09-14T20:46:28.794Z,11.33
2022-09-14T20:48:56.098Z,9.00
2022-09-14T20:51:23.739Z,8.23
2022-09-14T20:53:51.779Z,12.30
2022-09-14T20:56:31.211Z,9.20
2022-09-14T20:58:58.900Z,10.07
2022-09-14T21:01:29.863Z,12.97
2022-09-14T21:04:02.351Z,14.67
2022-09-14T21:06:30.000Z,11.53
2022-09-14T21:08:57.069Z,15.07
2022-09-14T21:11:25.796Z,14.57
2022-09-14T21:13:53.827Z,18.57
2022-09-14T21:16:28.397Z,16.87
2022-09-14T21:18:57.362Z,19.53
2022-09-14T21:21:24.544Z,14.07
2022-09-14T21:23:51.926Z,12.73
2022-09-14T21:26:19.586Z,13.40
2022-09-14T21:28:46.811Z,8.87
2022-09-14T21:31:20.408Z,13.57
2022-09-14T21:33:48.981Z,14.33
2022-09-14T21:36:19.803Z,9.37
2022-09-14T21:38:54.016Z,9.27
2022-09-14T21:41:21.874Z,12.77
2022-09-14T21:43:48.727Z,10.63
2022-09-14T21:46:16.602Z,6.23
2022-09-14T21:48:43.749Z,8.63
2022-09-14T21:51:18.377Z,5.13
2022-09-14T21:53:46.419Z,6.37
2022-09-14T21:56:13.384Z,7.70
2022-09-14T21:58:40.338Z,8.40
2022-09-14T22:01:08.232Z,6.67
2022-09-14T22:03:36.740Z,8.10
2022-09-14T22:06:07.421Z,8.53
2022-09-14T22:08:35.326Z,6.97
2022-09-14T22:11:06.415Z,14.90
2022-09-14T22:13:33.342Z,12.87
2022-09-14T22:16:10.929Z,9.53
2022-09-14T22:18:38.609Z,8.47
2022-09-14T22:21:06.275Z,7.77
2022-09-14T22:23:33.462Z,10.13
2022-09-14T22:26:04.506Z,8.70
2022-09-14T22:28:31.574Z,10.33
2022-09-14T22:30:58.546Z,10.57
2022-09-14T22:33:25.701Z,10.83
2022-09-14T22:35:53.794Z,7.63
2022-09-14T22:38:21.153Z,10.50
2022-09-14T22:41:05.024Z,10.57
2022-09-14T22:43:33.306Z,8.53
2022-09-14T22:46:00.593Z,9.13
2022-09-14T22:48:27.537Z,8.43
2022-09-14T22:50:55.079Z,7.83
2022-09-14T22:53:22.950Z,7.73
2022-09-14T22:55:50.204Z,6.43
2022-09-14T22:58:18.546Z,7.97
2022-09-14T23:00:46.445Z,9.53
2022-09-14T23:03:13.727Z,11.53
2022-09-14T23:05:47.642Z,7.10
2022-09-14T23:08:14.397Z,9.13
2022-09-14T23:10:41.296Z,10.50
2022-09-14T23:13:08.283Z,5.73
2022-09-14T23:15:38.637Z,9.83
2022-09-14T23:18:05.971Z,12.97
2022-09-14T23:20:35.674Z,7.77
2022-09-14T23:23:02.376Z,8.13
2022-09-14T23:25:29.295Z,7.83
2022-09-14T23:27:55.987Z,8.67
2022-09-14T23:30:22.734Z,9.07
2022-09-14T23:32:49.684Z,9.07
2022-09-14T23:35:16.668Z,7.90
2022-09-14T23:37:43.326Z,7.60
2022-09-14T23:40:10.583Z,6.70
2022-09-14T23:42:37.321Z,6.83
2022-09-14T23:45:05.281Z,8.20
2022-09-14T23:47:32.459Z,6.77
2022-09-14T23:49:59.209Z,5.47
2022-09-14T23:52:25.922Z,7.40
2022-09-14T23:54:52.903Z,10.77
2022-09-14T23:57:19.622Z,9.23
2022-09-14T23:59:46.401Z,6.23
